createdAt,value
2019-04-27T00:02:05.758Z,19.46
2019-04-27T00:04:38.802Z,19.43
2019-04-27T00:07:13.090Z,19.41
2019-04-27T00:09:50.337Z,19.38
2019-04-27T00:12:22.738Z,19.35
2019-04-27T00:14:55.164Z,19.34
2019-04-27T00:17:45.792Z,19.28
2019-04-27T00:20:13.100Z,19.24
2019-04-27T00:22:50.338Z,19.21
2019-04-27T00:25:23.077Z,19.17
2019-04-27T00:27:54.337Z,19.11
2019-04-27T00:30:25.510Z,19.05
2019-04-27T00:32:56.658Z,18.99
2019-04-27T00:35:30.141Z,18.90
2019-04-27T00:38:13.128Z,18.84
2019-04-27T00:40:48.699Z,18.78
2019-04-27T00:43:20.198Z,18.70
2019-04-27T00:45:53.649Z,18.62
2019-04-27T00:48:25.558Z,18.57
2019-04-27T00:50:56.719Z,18.49
2019-04-27T00:53:29.061Z,18.45
2019-04-27T00:56:08.041Z,18.38
2019-04-27T00:58:45.458Z,18.35
2019-04-27T01:01:23.277Z,18.33
2019-04-27T01:03:55.880Z,18.29
2019-04-27T01:06:27.566Z,18.27
2019-04-27T01:08:58.918Z,18.24
2019-04-27T01:11:30.233Z,18.21
2019-04-27T01:14:01.300Z,18.15
2019-04-27T01:16:32.543Z,18.08
2019-04-27T01:19:04.057Z,18.01
2019-04-27T01:21:35.813Z,17.95
2019-04-27T01:24:08.897Z,17.89
2019-04-27T01:26:41.582Z,17.79
2019-04-27T01:29:14.533Z,17.73
2019-04-27T01:31:45.700Z,17.72
2019-04-27T01:34:17.071Z,17.69
2019-04-27T01:36:49.300Z,17.66
2019-04-27T01:39:20.523Z,17.69
2019-04-27T01:41:51.707Z,17.69
2019-04-27T01:44:23.024Z,17.70
2019-04-27T01:46:55.202Z,17.68
2019-04-27T01:49:29.532Z,17.63
2019-04-27T01:52:00.897Z,17.60
2019-04-27T01:54:32.250Z,17.51
2019-04-27T01:57:04.267Z,17.43
2019-04-27T01:59:36.533Z,17.40
2019-04-27T02:02:12.170Z,17.35
2019-04-27T02:04:44.937Z,17.35
2019-04-27T02:07:16.573Z,17.28
2019-04-27T02:09:48.664Z,17.22
2019-04-27T02:12:20.191Z,17.16
2019-04-27T02:14:51.839Z,17.13
2019-04-27T02:17:23.295Z,17.11
2019-04-27T02:19:54.539Z,17.13
2019-04-27T02:22:29.730Z,17.14
2019-04-27T02:25:00.981Z,17.14
2019-04-27T02:27:34.630Z,17.13
2019-04-27T02:30:11.939Z,17.14
2019-04-27T02:33:01.591Z,17.11
2019-04-27T02:35:33.177Z,17.10
2019-04-27T02:38:04.902Z,17.08
2019-04-27T02:40:51.420Z,17.05
2019-04-27T02:43:32.667Z,17.01
2019-04-27T02:46:03.688Z,16.95
2019-04-27T02:48:51.907Z,16.93
2019-04-27T02:51:10.084Z,16.85
2019-04-27T02:53:54.519Z,16.78
2019-04-27T02:56:25.724Z,16.68
2019-04-27T02:58:59.146Z,16.63
2019-04-27T03:01:31.255Z,16.59
2019-04-27T03:04:02.336Z,16.59
2019-04-27T03:06:33.471Z,16.58
2019-04-27T03:09:07.099Z,16.53
2019-04-27T03:11:39.560Z,16.49
2019-04-27T03:14:28.413Z,16.48
2019-04-27T03:17:03.892Z,16.50
2019-04-27T03:19:36.719Z,16.52
2019-04-27T03:22:12.999Z,16.53
2019-04-27T03:25:01.951Z,16.54
2019-04-27T03:27:35.134Z,16.53
2019-04-27T03:30:12.088Z,16.53
2019-04-27T03:32:43.157Z,16.55
2019-04-27T03:35:14.886Z,16.54
2019-04-27T03:37:46.469Z,16.56
2019-04-27T03:40:20.370Z,16.57
2019-04-27T03:42:52.644Z,16.59
2019-04-27T03:45:24.202Z,16.61
2019-04-27T03:47:55.744Z,16.63
2019-04-27T03:50:30.341Z,16.70
2019-04-27T03:53:20.575Z,16.79
2019-04-27T03:55:59.820Z,16.84
2019-04-27T03:58:31.899Z,16.91
2019-04-27T04:01:03.179Z,16.98
2019-04-27T04:03:34.436Z,17.07
2019-04-27T04:06:06.151Z,17.16
2019-04-27T04:08:39.700Z,17.23
2019-04-27T04:11:12.658Z,17.31
2019-04-27T04:13:45.886Z,17.41
2019-04-27T04:16:29.439Z,17.50
2019-04-27T04:19:01.765Z,17.56
2019-04-27T04:21:33.882Z,17.61
2019-04-27T04:24:04.982Z,17.70
2019-04-27T04:26:36.279Z,17.83
2019-04-27T04:29:09.892Z,17.95
2019-04-27T04:31:40.893Z,18.08
2019-04-27T04:34:12.425Z,18.17
2019-04-27T04:36:43.691Z,18.26
2019-04-27T04:39:14.801Z,18.33
2019-04-27T04:41:59.712Z,18.40
2019-04-27T04:44:32.092Z,18.48
2019-04-27T04:47:10.594Z,18.55
2019-04-27T04:49:41.837Z,18.64
2019-04-27T04:52:13.015Z,18.75
2019-04-27T04:54:44.152Z,18.83
2019-04-27T04:57:15.347Z,18.94
2019-04-27T04:59:46.561Z,19.07
2019-04-27T05:02:19.149Z,19.18
2019-04-27T05:04:50.487Z,19.27
2019-04-27T05:07:21.663Z,19.38
2019-04-27T05:09:53.253Z,19.44
2019-04-27T05:12:24.896Z,19.53
2019-04-27T05:14:56.774Z,19.63
2019-04-27T05:17:29.657Z,19.73
2019-04-27T05:20:02.598Z,19.83
2019-04-27T05:22:33.808Z,19.90
2019-04-27T05:25:05.479Z,20.00
2019-04-27T05:27:36.696Z,20.10
2019-04-27T05:30:09.324Z,20.19
2019-04-27T05:32:40.527Z,20.26
2019-04-27T05:35:11.696Z,20.37
2019-04-27T05:37:44.416Z,20.46
2019-04-27T05:40:15.627Z,20.54
2019-04-27T05:42:48.830Z,20.63
2019-04-27T05:45:48.816Z,20.76
2019-04-27T05:48:27.635Z,20.94
2019-04-27T05:50:58.755Z,21.18
2019-04-27T05:53:29.087Z,21.44
2019-04-27T05:56:00.313Z,21.72
2019-04-27T05:58:31.522Z,22.00
2019-04-27T06:01:02.713Z,22.29
2019-04-27T06:03:33.939Z,22.49
2019-04-27T06:06:05.082Z,22.70
2019-04-27T06:08:36.329Z,22.89
2019-04-27T06:11:09.250Z,23.03
2019-04-27T06:13:40.527Z,23.12
2019-04-27T06:16:11.716Z,23.11
2019-04-27T06:18:42.790Z,23.07
2019-04-27T06:21:13.839Z,23.03
2019-04-27T06:23:46.361Z,22.86
2019-04-27T06:26:20.036Z,22.90
2019-04-27T06:28:50.605Z,22.82
2019-04-27T06:31:21.778Z,22.82
2019-04-27T06:33:52.938Z,22.77
2019-04-27T06:36:23.946Z,22.62
2019-04-27T06:38:55.137Z,22.65
2019-04-27T06:41:26.529Z,22.65
2019-04-27T06:43:59.175Z,22.62
2019-04-27T06:46:30.419Z,22.60
2019-04-27T06:49:01.379Z,22.57
2019-04-27T06:51:33.373Z,22.61
2019-04-27T06:54:04.636Z,22.69
2019-04-27T06:56:35.720Z,22.82
2019-04-27T06:59:08.594Z,23.43
2019-04-27T07:01:39.799Z,23.87
2019-04-27T07:04:11.135Z,23.87
2019-04-27T07:06:53.192Z,24.35
2019-04-27T07:09:15.148Z,24.88
2019-04-27T07:11:46.199Z,25.41
2019-04-27T07:14:17.321Z,25.92
2019-04-27T07:16:50.709Z,26.43
2019-04-27T07:19:22.102Z,26.91
2019-04-27T07:21:53.253Z,27.33
2019-04-27T07:24:24.450Z,27.67
2019-04-27T07:26:55.553Z,28.01
2019-04-27T07:29:26.786Z,28.34
2019-04-27T07:31:59.673Z,28.63
2019-04-27T07:34:31.149Z,28.74
2019-04-27T07:37:02.085Z,28.90
2019-04-27T07:39:33.285Z,29.07
2019-04-27T07:42:04.450Z,29.21
2019-04-27T07:44:50.027Z,29.40
2019-04-27T07:47:25.049Z,29.52
2019-04-27T07:49:55.967Z,29.43
2019-04-27T07:52:28.680Z,29.50
2019-04-27T07:55:00.001Z,29.61
2019-04-27T07:57:30.987Z,29.73
2019-04-27T08:00:01.911Z,29.76
2019-04-27T08:02:34.836Z,29.78
2019-04-27T08:05:06.319Z,29.82
2019-04-27T08:07:39.123Z,29.76
2019-04-27T08:10:10.519Z,29.78
2019-04-27T08:12:43.774Z,29.85
2019-04-27T08:15:18.855Z,29.94
2019-04-27T08:17:49.809Z,29.97
2019-04-27T08:20:21.236Z,29.85
2019-04-27T08:22:52.631Z,29.93
2019-04-27T08:25:23.814Z,29.82
2019-04-27T08:28:10.427Z,29.62
2019-04-27T08:30:45.928Z,29.51
2019-04-27T08:33:16.879Z,29.35
2019-04-27T08:35:49.067Z,29.06
2019-04-27T08:38:20.662Z,29.10
2019-04-27T08:40:52.232Z,28.99
2019-04-27T08:43:24.759Z,28.89
2019-04-27T08:45:56.114Z,28.75
2019-04-27T08:48:34.647Z,28.59
2019-04-27T08:51:00.247Z,28.42
2019-04-27T08:53:31.797Z,28.35
2019-04-27T08:56:04.481Z,28.32
2019-04-27T08:58:35.655Z,28.33
2019-04-27T09:01:09.996Z,28.27
2019-04-27T09:03:39.711Z,28.28
2019-04-27T09:06:12.686Z,28.24
2019-04-27T09:08:49.512Z,28.24
2019-04-27T09:11:28.955Z,28.16
2019-04-27T09:14:01.681Z,28.17
2019-04-27T09:16:41.866Z,28.14
2019-04-27T09:19:18.849Z,28.18
2019-04-27T09:22:12.359Z,28.25
2019-04-27T09:24:39.635Z,28.25
2019-04-27T09:27:11.201Z,28.16
2019-04-27T09:29:42.764Z,28.12
2019-04-27T09:32:13.862Z,28.14
2019-04-27T09:34:46.690Z,28.13
2019-04-27T09:37:18.054Z,28.22
2019-04-27T09:39:49.316Z,28.39
2019-04-27T09:42:20.611Z,28.59
2019-04-27T09:44:52.766Z,28.85
2019-04-27T09:47:24.076Z,29.09
2019-04-27T09:49:56.537Z,29.39
2019-04-27T09:52:28.701Z,29.68
2019-04-27T09:54:59.962Z,29.89
2019-04-27T09:57:31.619Z,30.14
2019-04-27T10:00:02.821Z,30.38
2019-04-27T10:02:36.518Z,30.54
2019-04-27T10:05:07.697Z,30.67
2019-04-27T10:07:39.015Z,30.78
2019-04-27T10:10:11.378Z,30.92
2019-04-27T10:12:42.741Z,31.00
2019-04-27T10:15:13.876Z,31.10
2019-04-27T10:17:45.594Z,31.13
2019-04-27T10:20:16.917Z,31.12
2019-04-27T10:22:48.233Z,31.18
2019-04-27T10:25:24.113Z,31.20
2019-04-27T10:27:58.872Z,31.14
2019-04-27T10:30:31.050Z,31.14
2019-04-27T10:33:02.582Z,31.06
2019-04-27T10:35:33.878Z,30.99
2019-04-27T10:38:05.001Z,30.78
2019-04-27T10:40:36.089Z,30.52
2019-04-27T10:43:07.271Z,30.42
2019-04-27T10:45:38.695Z,30.45
2019-04-27T10:48:09.903Z,30.41
2019-04-27T10:50:41.164Z,30.29
2019-04-27T10:53:12.273Z,30.10
2019-04-27T10:55:43.567Z,29.80
2019-04-27T10:58:14.776Z,29.49
2019-04-27T11:00:51.255Z,29.16
2019-04-27T11:03:40.250Z,28.94
2019-04-27T11:06:26.101Z,28.75
2019-04-27T11:08:57.400Z,28.50
2019-04-27T11:11:28.794Z,28.27
2019-04-27T11:14:01.071Z,28.09
2019-04-27T11:16:32.627Z,27.94
2019-04-27T11:19:03.980Z,27.75
2019-04-27T11:21:35.360Z,27.64
2019-04-27T11:24:06.618Z,27.59
2019-04-27T11:26:37.775Z,27.54
2019-04-27T11:29:08.805Z,27.54
2019-04-27T11:31:42.858Z,27.52
2019-04-27T11:34:15.641Z,27.48
2019-04-27T11:36:48.677Z,27.44
2019-04-27T11:39:21.251Z,27.43
2019-04-27T11:41:52.485Z,27.39
2019-04-27T11:44:23.699Z,27.33
2019-04-27T11:46:55.945Z,27.32
2019-04-27T11:49:28.263Z,27.30
2019-04-27T11:51:59.561Z,27.25
2019-04-27T11:54:31.074Z,27.20
2019-04-27T11:57:03.281Z,27.15
2019-04-27T11:59:34.661Z,27.14
2019-04-27T12:02:05.963Z,27.10
2019-04-27T12:04:37.162Z,27.05
2019-04-27T12:07:08.346Z,27.03
2019-04-27T12:09:39.523Z,26.98
2019-04-27T12:12:19.429Z,26.98
2019-04-27T12:14:43.413Z,26.93
2019-04-27T12:17:16.415Z,26.89
2019-04-27T12:19:53.492Z,26.88
2019-04-27T12:22:24.578Z,26.85
2019-04-27T12:24:56.208Z,26.79
2019-04-27T12:27:41.167Z,26.72
2019-04-27T12:30:13.948Z,26.68
2019-04-27T12:32:45.777Z,26.67
2019-04-27T12:35:17.139Z,26.67
2019-04-27T12:37:48.361Z,26.64
2019-04-27T12:40:20.295Z,26.63
2019-04-27T12:42:51.436Z,26.63
2019-04-27T12:45:22.619Z,26.60
2019-04-27T12:47:53.824Z,26.57
2019-04-27T12:50:26.084Z,26.51
2019-04-27T12:53:01.775Z,26.42
2019-04-27T12:55:50.491Z,26.37
2019-04-27T12:58:26.566Z,26.33
2019-04-27T13:01:02.517Z,26.29
2019-04-27T13:03:33.713Z,26.20
2019-04-27T13:06:04.886Z,26.14
2019-04-27T13:08:36.005Z,26.10
2019-04-27T13:11:07.206Z,26.05
2019-04-27T13:13:38.572Z,26.06
2019-04-27T13:16:09.757Z,26.07
2019-04-27T13:18:40.829Z,26.09
2019-04-27T13:21:12.093Z,26.06
2019-04-27T13:23:43.558Z,26.05
2019-04-27T13:26:16.426Z,26.05
2019-04-27T13:28:48.824Z,26.02
2019-04-27T13:31:20.084Z,25.90
2019-04-27T13:33:51.298Z,25.89
2019-04-27T13:36:22.428Z,25.90
2019-04-27T13:38:55.839Z,25.87
2019-04-27T13:41:32.667Z,25.81
2019-04-27T13:43:59.451Z,25.76
2019-04-27T13:46:32.178Z,25.76
2019-04-27T13:49:07.685Z,25.74
2019-04-27T13:51:43.235Z,25.70
2019-04-27T13:54:18.820Z,25.73
2019-04-27T13:56:47.687Z,25.56
2019-04-27T13:59:18.907Z,25.59
2019-04-27T14:01:50.018Z,25.60
2019-04-27T14:04:21.302Z,25.60
2019-04-27T14:06:52.345Z,25.65
2019-04-27T14:09:23.498Z,25.66
2019-04-27T14:11:56.330Z,25.66
2019-04-27T14:14:28.869Z,25.65
2019-04-27T14:17:00.119Z,25.66
2019-04-27T14:19:32.524Z,25.64
2019-04-27T14:22:03.798Z,25.62
2019-04-27T14:24:39.586Z,25.56
2019-04-27T14:27:10.768Z,25.55
2019-04-27T14:29:41.934Z,25.55
2019-04-27T14:32:13.067Z,25.53
2019-04-27T14:34:44.400Z,25.49
2019-04-27T14:37:15.531Z,25.49
2019-04-27T14:39:46.800Z,25.45
2019-04-27T14:42:19.124Z,25.42
2019-04-27T14:44:51.660Z,25.39
2019-04-27T14:47:22.742Z,25.37
2019-04-27T14:49:53.963Z,25.29
2019-04-27T14:52:25.294Z,25.26
2019-04-27T14:54:58.268Z,25.27
2019-04-27T14:57:29.491Z,25.24
2019-04-27T15:00:00.648Z,25.21
2019-04-27T15:02:31.819Z,25.22
2019-04-27T15:05:03.060Z,25.18
2019-04-27T15:07:34.315Z,25.20
2019-04-27T15:10:06.480Z,25.17
2019-04-27T15:12:37.589Z,25.15
2019-04-27T15:15:08.721Z,25.12
2019-04-27T15:17:40.274Z,25.11
2019-04-27T15:20:31.085Z,25.09
2019-04-27T15:23:03.446Z,25.08
2019-04-27T15:25:42.354Z,25.03
2019-04-27T15:28:12.215Z,25.02
2019-04-27T15:30:46.633Z,24.97
2019-04-27T15:33:35.809Z,24.91
2019-04-27T15:36:25.064Z,24.89
2019-04-27T15:39:03.711Z,24.84
2019-04-27T15:41:45.544Z,24.75
2019-04-27T15:44:16.710Z,24.71
2019-04-27T15:46:47.972Z,24.66
2019-04-27T15:49:19.202Z,24.60
2019-04-27T15:51:54.317Z,24.59
2019-04-27T15:54:29.041Z,24.56
2019-04-27T15:56:58.035Z,24.55
2019-04-27T15:59:37.020Z,24.48
2019-04-27T16:02:05.509Z,24.46
2019-04-27T16:04:39.541Z,24.44
2019-04-27T16:07:09.393Z,24.37
2019-04-27T16:09:40.585Z,24.35
2019-04-27T16:12:12.922Z,24.33
2019-04-27T16:14:44.384Z,24.30
2019-04-27T16:17:15.501Z,24.23
2019-04-27T16:19:50.294Z,24.20
2019-04-27T16:22:22.638Z,24.16
2019-04-27T16:24:53.525Z,24.13
2019-04-27T16:27:25.909Z,24.08
2019-04-27T16:30:04.791Z,24.05
2019-04-27T16:32:32.739Z,24.01
2019-04-27T16:35:04.376Z,23.96
2019-04-27T16:37:56.501Z,23.93
2019-04-27T16:40:30.150Z,23.87
2019-04-27T16:43:01.411Z,23.82
2019-04-27T16:45:32.629Z,23.79
2019-04-27T16:48:03.889Z,23.73
2019-04-27T16:50:35.240Z,23.69
2019-04-27T16:53:09.033Z,23.62
2019-04-27T16:55:39.288Z,23.60
2019-04-27T16:58:15.688Z,23.57
2019-04-27T17:00:45.236Z,23.54
2019-04-27T17:03:18.051Z,23.48
2019-04-27T17:05:49.292Z,23.44
2019-04-27T17:08:22.339Z,23.41
2019-04-27T17:10:59.264Z,23.36
2019-04-27T17:13:28.054Z,23.31
2019-04-27T17:16:18.870Z,23.29
2019-04-27T17:18:57.705Z,23.24
2019-04-27T17:21:28.809Z,23.21
2019-04-27T17:24:02.927Z,23.14
2019-04-27T17:26:35.570Z,23.06
2019-04-27T17:29:16.714Z,22.96
2019-04-27T17:31:50.531Z,22.90
2019-04-27T17:34:25.197Z,22.84
2019-04-27T17:36:56.374Z,22.76
2019-04-27T17:39:29.570Z,22.69
2019-04-27T17:42:00.363Z,22.64
2019-04-27T17:44:31.689Z,22.55
2019-04-27T17:47:02.875Z,22.48
2019-04-27T17:49:34.102Z,22.43
2019-04-27T17:52:05.347Z,22.35
2019-04-27T17:54:42.487Z,22.30
2019-04-27T17:57:13.283Z,22.29
2019-04-27T17:59:42.661Z,22.24
2019-04-27T18:02:13.928Z,22.20
2019-04-27T18:04:45.159Z,22.17
2019-04-27T18:07:16.294Z,22.17
2019-04-27T18:09:48.319Z,22.13
2019-04-27T18:12:20.062Z,22.11
2019-04-27T18:14:51.225Z,22.06
2019-04-27T18:17:23.214Z,22.03
2019-04-27T18:19:57.606Z,22.00
2019-04-27T18:22:32.241Z,21.95
2019-04-27T18:25:06.692Z,21.91
2019-04-27T18:27:49.629Z,21.87
2019-04-27T18:30:22.958Z,21.83
2019-04-27T18:32:59.369Z,21.81
2019-04-27T18:35:29.680Z,21.76
2019-04-27T18:38:01.982Z,21.73
2019-04-27T18:40:34.412Z,21.70
2019-04-27T18:43:06.482Z,21.68
2019-04-27T18:45:44.782Z,21.64
2019-04-27T18:48:14.869Z,21.62
2019-04-27T18:50:53.274Z,21.61
2019-04-27T18:53:26.041Z,21.60
2019-04-27T18:56:04.396Z,21.57
2019-04-27T18:58:30.091Z,21.55
2019-04-27T19:01:01.250Z,21.55
2019-04-27T19:03:33.125Z,21.53
2019-04-27T19:06:04.927Z,21.50
2019-04-27T19:08:36.218Z,21.48
2019-04-27T19:11:09.079Z,21.46
2019-04-27T19:13:41.516Z,21.43
2019-04-27T19:16:12.730Z,21.42
2019-04-27T19:18:44.345Z,21.41
2019-04-27T19:21:15.496Z,21.43
2019-04-27T19:23:46.791Z,21.44
2019-04-27T19:26:20.578Z,21.43
2019-04-27T19:29:05.669Z,21.43
2019-04-27T19:31:38.659Z,21.42
2019-04-27T19:34:09.870Z,21.39
2019-04-27T19:36:41.051Z,21.38
2019-04-27T19:39:14.169Z,21.37
2019-04-27T19:41:57.005Z,21.38
2019-04-27T19:44:19.273Z,21.38
2019-04-27T19:46:50.787Z,21.37
2019-04-27T19:49:21.875Z,21.35
2019-04-27T19:51:53.039Z,21.36
2019-04-27T19:54:24.270Z,21.36
2019-04-27T19:56:55.501Z,21.34
2019-04-27T19:59:28.302Z,21.34
2019-04-27T20:02:01.010Z,21.37
2019-04-27T20:04:33.896Z,21.39
2019-04-27T20:07:05.751Z,21.41
2019-04-27T20:09:50.156Z,21.43
2019-04-27T20:12:21.494Z,21.40
2019-04-27T20:14:55.641Z,21.39
2019-04-27T20:17:31.259Z,21.41
2019-04-27T20:20:02.834Z,21.41
2019-04-27T20:22:35.142Z,21.42
2019-04-27T20:25:06.314Z,21.40
2019-04-27T20:27:46.235Z,21.39
2019-04-27T20:30:12.212Z,21.37
2019-04-27T20:32:44.935Z,21.35
2019-04-27T20:35:17.058Z,21.35
2019-04-27T20:37:48.282Z,21.33
2019-04-27T20:40:21.610Z,21.30
2019-04-27T20:42:52.459Z,21.30
2019-04-27T20:45:23.721Z,21.28
2019-04-27T20:47:55.005Z,21.32
2019-04-27T20:50:26.333Z,21.33
2019-04-27T20:52:57.707Z,21.37
2019-04-27T20:55:29.233Z,21.37
2019-04-27T20:58:02.547Z,21.36
2019-04-27T21:00:34.044Z,21.38
2019-04-27T21:03:06.979Z,21.35
2019-04-27T21:05:42.508Z,21.32
2019-04-27T21:08:15.356Z,21.34
2019-04-27T21:10:46.553Z,21.36
2019-04-27T21:13:17.813Z,21.39
2019-04-27T21:15:50.849Z,21.37
2019-04-27T21:18:21.873Z,21.34
2019-04-27T21:20:53.091Z,21.28
2019-04-27T21:23:24.293Z,21.28
2019-04-27T21:25:55.564Z,21.27
2019-04-27T21:28:26.646Z,21.26
2019-04-27T21:30:58.079Z,21.28
2019-04-27T21:33:29.343Z,21.26
2019-04-27T21:36:01.418Z,21.27
2019-04-27T21:38:32.770Z,21.29
2019-04-27T21:41:03.950Z,21.31
2019-04-27T21:43:36.181Z,21.27
2019-04-27T21:46:07.286Z,21.32
2019-04-27T21:48:38.378Z,21.32
2019-04-27T21:51:09.576Z,21.34
2019-04-27T21:53:57.270Z,21.36
2019-04-27T21:56:28.497Z,21.37
2019-04-27T21:59:01.011Z,21.33
2019-04-27T22:01:33.704Z,21.33
2019-04-27T22:04:06.525Z,21.34
2019-04-27T22:06:37.669Z,21.35
2019-04-27T22:09:11.060Z,21.35
2019-04-27T22:11:43.548Z,21.32
2019-04-27T22:14:14.781Z,21.34
2019-04-27T22:16:45.976Z,21.29
2019-04-27T22:19:17.155Z,21.32
2019-04-27T22:21:48.371Z,21.33
2019-04-27T22:24:29.848Z,21.33
2019-04-27T22:27:00.964Z,21.33
2019-04-27T22:29:32.279Z,21.32
2019-04-27T22:32:03.568Z,21.27
2019-04-27T22:34:34.857Z,21.27
2019-04-27T22:37:05.946Z,21.23
2019-04-27T22:39:54.772Z,21.25
2019-04-27T22:42:31.318Z,21.24
2019-04-27T22:45:05.274Z,21.24
2019-04-27T22:47:36.509Z,21.21
2019-04-27T22:50:07.671Z,21.23
2019-04-27T22:52:38.798Z,21.17
2019-04-27T22:55:11.821Z,21.13
2019-04-27T22:57:47.443Z,21.09
2019-04-27T23:00:32.700Z,21.08
2019-04-27T23:03:05.659Z,21.00
2019-04-27T23:05:37.041Z,20.97
2019-04-27T23:08:08.089Z,20.95
2019-04-27T23:10:39.311Z,20.96
2019-04-27T23:13:11.227Z,20.96
2019-04-27T23:15:44.249Z,20.96
2019-04-27T23:18:15.378Z,20.93
2019-04-27T23:20:46.718Z,20.89
2019-04-27T23:23:17.881Z,20.84
2019-04-27T23:25:49.137Z,20.80
2019-04-27T23:28:20.876Z,20.78
2019-04-27T23:30:56.792Z,20.77
2019-04-27T23:33:27.342Z,20.74
2019-04-27T23:35:58.328Z,20.58
2019-04-27T23:38:30.960Z,20.59
2019-04-27T23:41:02.357Z,20.55
2019-04-27T23:43:33.496Z,20.51
2019-04-27T23:46:04.788Z,20.53
2019-04-27T23:48:36.049Z,20.53
2019-04-27T23:51:08.834Z,20.52
2019-04-27T23:53:41.765Z,20.51
2019-04-27T23:56:14.683Z,20.55
2019-04-27T23:58:45.781Z,20.56
